Terminal Aerodrome Forecast
Issued by NWS Brownsville, TX

Current Version | Previous Version | Text Only | Print | Product List | Glossary On
Versions: 1 2 3 4 5 6 7 8 9 10 11 12 13 14 15 16 17 18 19 20
000
FTUS44 KBRO 081720
TAFBRO
TAF
KBRO 081720Z 0818/0918 31011G20KT 4SM RA BR OVC006
      TEMPO 0818/0822 2SM +RA BR
     FM090300 33015G25KT 5SM -RA BR OVC008
     FM090600 33015G20KT P6SM -DZ OVC012
     FM091200 33015KT P6SM -DZ OVC015=

USA.gov is the U.S. government's official web portal to all federal, state and local government web resources and services.